sensor_id;sensor_type;location;lat;lon;timestamp;temperature;humidity
680;DHT22;322;48.846;9.230;2023-02-26T00:02:07;1.00;99.90
680;DHT22;322;48.846;9.230;2023-02-26T00:04:35;1.00;99.90
680;DHT22;322;48.846;9.230;2023-02-26T00:07:02;1.00;99.90
680;DHT22;322;48.846;9.230;2023-02-26T00:09:31;0.90;99.90
680;DHT22;322;48.846;9.230;2023-02-26T00:12:00;0.90;99.90
680;DHT22;322;48.846;9.230;2023-02-26T00:14:27;0.80;99.90
680;DHT22;322;48.846;9.230;2023-02-26T00:17:06;0.80;99.90
680;DHT22;322;48.846;9.230;2023-02-26T00:19:35;0.70;99.90
680;DHT22;322;48.846;9.230;2023-02-26T00:22:03;0.70;99.90
680;DHT22;322;48.846;9.230;2023-02-26T00:24:29;0.70;99.90
680;DHT22;322;48.846;9.230;2023-02-26T00:26:56;0.70;99.90
680;DHT22;322;48.846;9.230;2023-02-26T00:29:25;0.60;99.90
680;DHT22;322;48.846;9.230;2023-02-26T00:31:52;0.60;99.90
680;DHT22;322;48.846;9.230;2023-02-26T00:34:19;0.50;99.90
680;DHT22;322;48.846;9.230;2023-02-26T00:36:51;0.40;99.90
680;DHT22;322;48.846;9.230;2023-02-26T00:39:33;0.40;99.90
680;DHT22;322;48.846;9.230;2023-02-26T00:42:03;0.30;99.90
680;DHT22;322;48.846;9.230;2023-02-26T00:44:33;0.30;99.90
680;DHT22;322;48.846;9.230;2023-02-26T00:47:05;0.40;99.90
680;DHT22;322;48.846;9.230;2023-02-26T00:49:49;0.40;99.90
680;DHT22;322;48.846;9.230;2023-02-26T00:52:25;0.40;99.90
680;DHT22;322;48.846;9.230;2023-02-26T00:54:54;0.40;99.90
680;DHT22;322;48.846;9.230;2023-02-26T00:57:20;0.30;99.90
680;DHT22;322;48.846;9.230;2023-02-26T00:59:49;0.30;99.90
680;DHT22;322;48.846;9.230;2023-02-26T01:02:15;0.30;99.90
680;DHT22;322;48.846;9.230;2023-02-26T01:04:43;0.20;99.90
680;DHT22;322;48.846;9.230;2023-02-26T01:07:11;0.20;99.90
680;DHT22;322;48.846;9.230;2023-02-26T01:09:39;0.10;99.90
680;DHT22;322;48.846;9.230;2023-02-26T01:12:08;0.10;99.90
680;DHT22;322;48.846;9.230;2023-02-26T01:14:36;0.00;99.90
680;DHT22;322;48.846;9.230;2023-02-26T01:17:13;0.00;99.90
680;DHT22;322;48.846;9.230;2023-02-26T01:19:43;-0.10;99.90
680;DHT22;322;48.846;9.230;2023-02-26T01:22:14;-0.20;99.90
680;DHT22;322;48.846;9.230;2023-02-26T01:24:42;-0.20;99.90
680;DHT22;322;48.846;9.230;2023-02-26T01:27:10;-0.30;99.90
680;DHT22;322;48.846;9.230;2023-02-26T01:29:37;-0.20;99.90
680;DHT22;322;48.846;9.230;2023-02-26T01:32:09;-0.30;99.90
680;DHT22;322;48.846;9.230;2023-02-26T01:34:43;-0.30;99.90
680;DHT22;322;48.846;9.230;2023-02-26T01:37:20;-0.40;99.90
680;DHT22;322;48.846;9.230;2023-02-26T01:39:58;-0.50;99.90
680;DHT22;322;48.846;9.230;2023-02-26T01:42:31;-0.60;99.90
680;DHT22;322;48.846;9.230;2023-02-26T01:45:06;-0.60;99.90
680;DHT22;322;48.846;9.230;2023-02-26T01:47:42;-0.60;99.90
680;DHT22;322;48.846;9.230;2023-02-26T01:50:14;-0.70;99.90
680;DHT22;322;48.846;9.230;2023-02-26T01:53:20;-0.80;99.90
680;DHT22;322;48.846;9.230;2023-02-26T01:55:51;-0.80;99.90
680;DHT22;322;48.846;9.230;2023-02-26T01:58:21;-0.80;99.90
680;DHT22;322;48.846;9.230;2023-02-26T02:00:50;-0.80;99.90
680;DHT22;322;48.846;9.230;2023-02-26T02:03:19;-0.80;99.90
680;DHT22;322;48.846;9.230;2023-02-26T02:05:49;-0.80;99.90
680;DHT22;322;48.846;9.230;2023-02-26T02:08:18;-0.90;99.90
680;DHT22;322;48.846;9.230;2023-02-26T02:10:47;-0.90;99.90
680;DHT22;322;48.846;9.230;2023-02-26T02:13:24;-1.00;99.90
680;DHT22;322;48.846;9.230;2023-02-26T02:16:03;-1.00;99.90
680;DHT22;322;48.846;9.230;2023-02-26T02:18:40;-1.00;99.90
680;DHT22;322;48.846;9.230;2023-02-26T02:24:02;-1.00;99.90
680;DHT22;322;48.846;9.230;2023-02-26T02:26:59;-1.00;99.90
680;DHT22;322;48.846;9.230;2023-02-26T02:32:21;-1.20;99.90
680;DHT22;322;48.846;9.230;2023-02-26T02:34:53;-1.20;99.90
680;DHT22;322;48.846;9.230;2023-02-26T02:37:26;-1.30;99.90
680;DHT22;322;48.846;9.230;2023-02-26T02:39:57;-1.40;99.90
680;DHT22;322;48.846;9.230;2023-02-26T02:42:29;-1.50;99.90
680;DHT22;322;48.846;9.230;2023-02-26T02:44:59;-1.50;99.90
680;DHT22;322;48.846;9.230;2023-02-26T02:47:31;-1.50;99.90
680;DHT22;322;48.846;9.230;2023-02-26T02:50:04;-1.50;99.90
680;DHT22;322;48.846;9.230;2023-02-26T02:52:37;-1.50;99.90
680;DHT22;322;48.846;9.230;2023-02-26T02:55:10;-1.70;99.90
680;DHT22;322;48.846;9.230;2023-02-26T02:57:41;-1.80;99.90
680;DHT22;322;48.846;9.230;2023-02-26T03:00:11;-1.90;99.90
680;DHT22;322;48.846;9.230;2023-02-26T03:02:45;-1.90;99.90
680;DHT22;322;48.846;9.230;2023-02-26T03:05:14;-1.80;99.90
680;DHT22;322;48.846;9.230;2023-02-26T03:07:47;-1.80;99.90
680;DHT22;322;48.846;9.230;2023-02-26T03:10:15;-1.80;99.90
680;DHT22;322;48.846;9.230;2023-02-26T03:12:42;-1.80;99.90
680;DHT22;322;48.846;9.230;2023-02-26T03:15:10;-1.80;99.90
680;DHT22;322;48.846;9.230;2023-02-26T03:17:45;-1.70;99.90
680;DHT22;322;48.846;9.230;2023-02-26T03:20:20;-1.50;99.90
680;DHT22;322;48.846;9.230;2023-02-26T03:23:03;-1.40;99.90
680;DHT22;322;48.846;9.230;2023-02-26T03:25:39;-1.30;99.90
680;DHT22;322;48.846;9.230;2023-02-26T03:28:21;-1.20;99.90
680;DHT22;322;48.846;9.230;2023-02-26T03:30:55;-1.20;99.90
680;DHT22;322;48.846;9.230;2023-02-26T03:33:36;-1.10;99.90
680;DHT22;322;48.846;9.230;2023-02-26T03:36:10;-1.20;99.90
680;DHT22;322;48.846;9.230;2023-02-26T03:38:42;-1.30;99.90
680;DHT22;322;48.846;9.230;2023-02-26T03:41:15;-1.40;99.90
680;DHT22;322;48.846;9.230;2023-02-26T03:43:46;-1.40;99.90
680;DHT22;322;48.846;9.230;2023-02-26T03:46:17;-1.50;99.90
680;DHT22;322;48.846;9.230;2023-02-26T03:48:49;-1.50;99.90
680;DHT22;322;48.846;9.230;2023-02-26T03:51:17;-1.50;99.90
680;DHT22;322;48.846;9.230;2023-02-26T03:53:49;-1.60;99.90
680;DHT22;322;48.846;9.230;2023-02-26T03:56:21;-1.60;99.90
680;DHT22;322;48.846;9.230;2023-02-26T03:58:51;-1.50;99.90
680;DHT22;322;48.846;9.230;2023-02-26T04:01:21;-1.50;99.90
680;DHT22;322;48.846;9.230;2023-02-26T04:03:54;-1.50;99.90
680;DHT22;322;48.846;9.230;2023-02-26T04:06:23;-1.50;99.90
680;DHT22;322;48.846;9.230;2023-02-26T04:08:51;-1.50;99.90
680;DHT22;322;48.846;9.230;2023-02-26T04:11:20;-1.50;99.90
680;DHT22;322;48.846;9.230;2023-02-26T04:13:47;-1.50;99.90
680;DHT22;322;48.846;9.230;2023-02-26T04:16:15;-1.50;99.90
680;DHT22;322;48.846;9.230;2023-02-26T04:18:43;-1.50;99.90
680;DHT22;322;48.846;9.230;2023-02-26T04:21:12;-1.50;99.90
680;DHT22;322;48.846;9.230;2023-02-26T04:23:39;-1.60;99.90
680;DHT22;322;48.846;9.230;2023-02-26T04:26:06;-1.60;99.90
680;DHT22;322;48.846;9.230;2023-02-26T04:28:33;-1.60;99.90
680;DHT22;322;48.846;9.230;2023-02-26T04:31:02;-1.70;99.90
680;DHT22;322;48.846;9.230;2023-02-26T04:33:29;-1.80;99.90
680;DHT22;322;48.846;9.230;2023-02-26T04:35:57;-1.90;99.90
680;DHT22;322;48.846;9.230;2023-02-26T04:38:26;-1.80;99.90
680;DHT22;322;48.846;9.230;2023-02-26T04:40:53;-1.90;99.90
680;DHT22;322;48.846;9.230;2023-02-26T04:43:20;-1.90;99.90
680;DHT22;322;48.846;9.230;2023-02-26T04:45:47;-2.00;99.90
680;DHT22;322;48.846;9.230;2023-02-26T04:48:15;-2.00;99.90
680;DHT22;322;48.846;9.230;2023-02-26T04:50:41;-2.00;99.90
680;DHT22;322;48.846;9.230;2023-02-26T04:53:08;-2.10;99.90
680;DHT22;322;48.846;9.230;2023-02-26T04:55:37;-2.20;99.90
680;DHT22;322;48.846;9.230;2023-02-26T04:58:06;-2.20;99.90
680;DHT22;322;48.846;9.230;2023-02-26T05:00:33;-2.20;99.90
680;DHT22;322;48.846;9.230;2023-02-26T05:03:00;-2.20;99.90
680;DHT22;322;48.846;9.230;2023-02-26T05:05:26;-2.20;99.90
680;DHT22;322;48.846;9.230;2023-02-26T05:07:53;-2.20;99.90
680;DHT22;322;48.846;9.230;2023-02-26T05:10:21;-2.20;99.90
680;DHT22;322;48.846;9.230;2023-02-26T05:12:49;-2.40;99.90
680;DHT22;322;48.846;9.230;2023-02-26T05:15:16;-2.50;99.90
680;DHT22;322;48.846;9.230;2023-02-26T05:17:43;-2.50;99.90
680;DHT22;322;48.846;9.230;2023-02-26T05:20:11;-2.50;99.90
680;DHT22;322;48.846;9.230;2023-02-26T05:22:38;-2.60;99.90
680;DHT22;322;48.846;9.230;2023-02-26T05:25:06;-2.60;99.90
680;DHT22;322;48.846;9.230;2023-02-26T05:27:33;-2.60;99.90
680;DHT22;322;48.846;9.230;2023-02-26T05:30:02;-2.60;99.90
680;DHT22;322;48.846;9.230;2023-02-26T05:32:29;-2.60;99.90
680;DHT22;322;48.846;9.230;2023-02-26T05:34:55;-2.60;99.90
680;DHT22;322;48.846;9.230;2023-02-26T05:37:22;-2.70;99.90
680;DHT22;322;48.846;9.230;2023-02-26T05:39:49;-2.80;99.90
680;DHT22;322;48.846;9.230;2023-02-26T05:42:16;-2.80;99.90
680;DHT22;322;48.846;9.230;2023-02-26T05:44:43;-2.90;99.90
680;DHT22;322;48.846;9.230;2023-02-26T05:47:11;-2.90;99.90
680;DHT22;322;48.846;9.230;2023-02-26T05:49:37;-2.90;99.90
680;DHT22;322;48.846;9.230;2023-02-26T05:52:04;-2.80;99.90
680;DHT22;322;48.846;9.230;2023-02-26T05:54:31;-2.80;99.90
680;DHT22;322;48.846;9.230;2023-02-26T05:56:58;-2.80;99.90
680;DHT22;322;48.846;9.230;2023-02-26T05:59:25;-2.80;99.90
680;DHT22;322;48.846;9.230;2023-02-26T06:01:52;-2.80;99.90
680;DHT22;322;48.846;9.230;2023-02-26T06:04:20;-2.90;99.90
680;DHT22;322;48.846;9.230;2023-02-26T06:06:47;-2.90;99.90
680;DHT22;322;48.846;9.230;2023-02-26T06:09:14;-2.90;99.90
680;DHT22;322;48.846;9.230;2023-02-26T06:11:41;-2.90;99.90
680;DHT22;322;48.846;9.230;2023-02-26T06:14:07;-3.00;99.90
680;DHT22;322;48.846;9.230;2023-02-26T06:16:34;-2.90;99.90
680;DHT22;322;48.846;9.230;2023-02-26T06:19:01;-3.00;99.90
680;DHT22;322;48.846;9.230;2023-02-26T06:21:29;-3.00;99.90
680;DHT22;322;48.846;9.230;2023-02-26T06:23:56;-3.00;99.90
680;DHT22;322;48.846;9.230;2023-02-26T06:26:23;-2.80;99.90
680;DHT22;322;48.846;9.230;2023-02-26T06:28:50;-2.70;99.90
680;DHT22;322;48.846;9.230;2023-02-26T06:31:16;-2.50;99.90
680;DHT22;322;48.846;9.230;2023-02-26T06:33:43;-2.40;99.90
680;DHT22;322;48.846;9.230;2023-02-26T06:36:10;-2.20;99.90
680;DHT22;322;48.846;9.230;2023-02-26T06:38:38;-2.10;99.90
680;DHT22;322;48.846;9.230;2023-02-26T06:41:06;-2.00;99.90
680;DHT22;322;48.846;9.230;2023-02-26T06:43:33;-1.90;99.90
680;DHT22;322;48.846;9.230;2023-02-26T06:46:00;-1.80;99.90
680;DHT22;322;48.846;9.230;2023-02-26T06:48:27;-1.70;99.90
680;DHT22;322;48.846;9.230;2023-02-26T06:50:54;-1.60;99.90
680;DHT22;322;48.846;9.230;2023-02-26T06:53:22;-1.60;99.90
680;DHT22;322;48.846;9.230;2023-02-26T06:55:51;-1.60;99.90
680;DHT22;322;48.846;9.230;2023-02-26T06:58:19;-1.60;99.90
680;DHT22;322;48.846;9.230;2023-02-26T07:00:46;-1.50;99.90
680;DHT22;322;48.846;9.230;2023-02-26T07:03:14;-1.30;99.90
680;DHT22;322;48.846;9.230;2023-02-26T07:05:43;-1.20;99.90
680;DHT22;322;48.846;9.230;2023-02-26T07:08:10;-1.10;99.90
680;DHT22;322;48.846;9.230;2023-02-26T07:10:37;-1.00;99.90
680;DHT22;322;48.846;9.230;2023-02-26T07:13:05;-1.00;99.90
680;DHT22;322;48.846;9.230;2023-02-26T07:15:32;-1.00;99.90
680;DHT22;322;48.846;9.230;2023-02-26T07:17:58;-0.90;99.90
680;DHT22;322;48.846;9.230;2023-02-26T07:20:26;-0.90;99.90
680;DHT22;322;48.846;9.230;2023-02-26T07:22:53;-0.80;99.90
680;DHT22;322;48.846;9.230;2023-02-26T07:25:20;-0.70;99.90
680;DHT22;322;48.846;9.230;2023-02-26T07:27:47;-0.60;99.90
680;DHT22;322;48.846;9.230;2023-02-26T07:30:16;-0.40;99.90
680;DHT22;322;48.846;9.230;2023-02-26T07:32:43;-0.40;99.90
680;DHT22;322;48.846;9.230;2023-02-26T07:35:10;-0.30;99.90
680;DHT22;322;48.846;9.230;2023-02-26T07:37:37;-0.30;99.90
680;DHT22;322;48.846;9.230;2023-02-26T07:40:05;-0.30;99.90
680;DHT22;322;48.846;9.230;2023-02-26T07:42:32;-0.30;99.90
680;DHT22;322;48.846;9.230;2023-02-26T07:44:59;-0.20;99.90
680;DHT22;322;48.846;9.230;2023-02-26T07:47:28;-0.20;99.90
680;DHT22;322;48.846;9.230;2023-02-26T07:49:55;-0.10;99.90
680;DHT22;322;48.846;9.230;2023-02-26T07:52:22;-0.10;99.90
680;DHT22;322;48.846;9.230;2023-02-26T07:54:48;-0.10;99.90
680;DHT22;322;48.846;9.230;2023-02-26T07:57:15;0.00;99.90
680;DHT22;322;48.846;9.230;2023-02-26T07:59:42;0.10;99.90
680;DHT22;322;48.846;9.230;2023-02-26T08:02:10;0.10;99.90
680;DHT22;322;48.846;9.230;2023-02-26T08:04:38;0.10;99.90
680;DHT22;322;48.846;9.230;2023-02-26T08:07:05;0.20;99.90
680;DHT22;322;48.846;9.230;2023-02-26T08:09:32;0.20;99.90
680;DHT22;322;48.846;9.230;2023-02-26T08:11:59;0.40;99.90
680;DHT22;322;48.846;9.230;2023-02-26T08:14:25;0.50;99.90
680;DHT22;322;48.846;9.230;2023-02-26T08:16:52;0.70;99.90
680;DHT22;322;48.846;9.230;2023-02-26T08:19:19;0.60;99.90
680;DHT22;322;48.846;9.230;2023-02-26T08:21:47;0.50;99.90
680;DHT22;322;48.846;9.230;2023-02-26T08:24:14;0.50;99.90
680;DHT22;322;48.846;9.230;2023-02-26T08:26:41;0.50;99.90
680;DHT22;322;48.846;9.230;2023-02-26T08:29:08;0.40;99.90
680;DHT22;322;48.846;9.230;2023-02-26T08:31:34;0.30;99.90
680;DHT22;322;48.846;9.230;2023-02-26T08:34:01;0.30;99.90
680;DHT22;322;48.846;9.230;2023-02-26T08:36:28;0.20;99.90
680;DHT22;322;48.846;9.230;2023-02-26T08:38:57;0.30;99.90
680;DHT22;322;48.846;9.230;2023-02-26T08:41:24;0.40;99.90
680;DHT22;322;48.846;9.230;2023-02-26T08:43:52;0.50;99.90
680;DHT22;322;48.846;9.230;2023-02-26T08:46:18;0.50;99.90
680;DHT22;322;48.846;9.230;2023-02-26T08:48:45;0.60;99.90
680;DHT22;322;48.846;9.230;2023-02-26T08:51:12;0.50;99.90
680;DHT22;322;48.846;9.230;2023-02-26T08:53:39;0.30;99.90
680;DHT22;322;48.846;9.230;2023-02-26T08:56:07;0.30;99.90
680;DHT22;322;48.846;9.230;2023-02-26T08:58:34;0.40;99.90
680;DHT22;322;48.846;9.230;2023-02-26T09:01:01;0.40;99.90
680;DHT22;322;48.846;9.230;2023-02-26T09:03:28;0.40;99.90
680;DHT22;322;48.846;9.230;2023-02-26T09:05:54;0.40;99.90
680;DHT22;322;48.846;9.230;2023-02-26T09:08:21;0.50;99.90
680;DHT22;322;48.846;9.230;2023-02-26T09:10:48;0.60;99.90
680;DHT22;322;48.846;9.230;2023-02-26T09:13:16;0.60;99.90
680;DHT22;322;48.846;9.230;2023-02-26T09:15:43;0.80;99.90
680;DHT22;322;48.846;9.230;2023-02-26T09:18:10;0.90;99.90
680;DHT22;322;48.846;9.230;2023-02-26T09:20:40;0.90;99.90
680;DHT22;322;48.846;9.230;2023-02-26T09:23:08;0.90;99.90
680;DHT22;322;48.846;9.230;2023-02-26T09:25:34;0.90;99.90
680;DHT22;322;48.846;9.230;2023-02-26T09:28:01;0.90;99.90
680;DHT22;322;48.846;9.230;2023-02-26T09:30:30;0.80;99.90
680;DHT22;322;48.846;9.230;2023-02-26T09:32:58;0.80;99.90
680;DHT22;322;48.846;9.230;2023-02-26T09:35:24;0.70;99.90
680;DHT22;322;48.846;9.230;2023-02-26T09:37:51;0.70;99.90
680;DHT22;322;48.846;9.230;2023-02-26T09:40:24;0.70;99.90
680;DHT22;322;48.846;9.230;2023-02-26T09:43:05;0.80;99.90
680;DHT22;322;48.846;9.230;2023-02-26T09:45:37;0.80;99.90
680;DHT22;322;48.846;9.230;2023-02-26T09:48:07;0.80;99.90
680;DHT22;322;48.846;9.230;2023-02-26T09:50:40;0.80;99.90
680;DHT22;322;48.846;9.230;2023-02-26T09:53:12;0.90;99.90
680;DHT22;322;48.846;9.230;2023-02-26T09:55:42;0.90;99.90
680;DHT22;322;48.846;9.230;2023-02-26T09:58:17;0.90;99.90
680;DHT22;322;48.846;9.230;2023-02-26T10:00:52;0.80;99.90
680;DHT22;322;48.846;9.230;2023-02-26T10:03:29;0.80;99.90
680;DHT22;322;48.846;9.230;2023-02-26T10:06:14;0.80;99.90
680;DHT22;322;48.846;9.230;2023-02-26T10:08:49;0.80;99.90
680;DHT22;322;48.846;9.230;2023-02-26T10:11:24;1.00;99.90
680;DHT22;322;48.846;9.230;2023-02-26T10:13:57;1.20;99.90
680;DHT22;322;48.846;9.230;2023-02-26T10:16:32;1.30;99.90
680;DHT22;322;48.846;9.230;2023-02-26T10:19:05;1.60;99.90
680;DHT22;322;48.846;9.230;2023-02-26T10:21:37;1.70;99.90
680;DHT22;322;48.846;9.230;2023-02-26T10:24:11;1.80;99.90
680;DHT22;322;48.846;9.230;2023-02-26T10:26:41;2.00;99.90
680;DHT22;322;48.846;9.230;2023-02-26T10:29:18;2.20;99.90
680;DHT22;322;48.846;9.230;2023-02-26T10:31:56;2.40;99.90
680;DHT22;322;48.846;9.230;2023-02-26T10:34:29;2.60;99.90
680;DHT22;322;48.846;9.230;2023-02-26T10:37:02;2.30;99.90
680;DHT22;322;48.846;9.230;2023-02-26T10:39:34;2.30;99.90
680;DHT22;322;48.846;9.230;2023-02-26T10:42:08;2.70;99.90
680;DHT22;322;48.846;9.230;2023-02-26T10:44:43;2.80;99.90
680;DHT22;322;48.846;9.230;2023-02-26T10:47:18;2.80;99.90
680;DHT22;322;48.846;9.230;2023-02-26T10:49:53;3.10;99.90
680;DHT22;322;48.846;9.230;2023-02-26T10:52:23;3.30;99.90
680;DHT22;322;48.846;9.230;2023-02-26T10:55:18;3.40;99.90
680;DHT22;322;48.846;9.230;2023-02-26T10:57:50;3.30;99.90
680;DHT22;322;48.846;9.230;2023-02-26T11:00:20;2.90;99.90
680;DHT22;322;48.846;9.230;2023-02-26T11:02:50;2.50;99.90
680;DHT22;322;48.846;9.230;2023-02-26T11:05:19;2.20;99.90
680;DHT22;322;48.846;9.230;2023-02-26T11:07:51;2.10;99.90
680;DHT22;322;48.846;9.230;2023-02-26T11:10:22;2.00;99.90
680;DHT22;322;48.846;9.230;2023-02-26T11:12:50;2.10;99.90
680;DHT22;322;48.846;9.230;2023-02-26T11:15:20;2.10;99.90
680;DHT22;322;48.846;9.230;2023-02-26T11:17:52;2.30;99.90
680;DHT22;322;48.846;9.230;2023-02-26T11:20:28;2.70;99.90
680;DHT22;322;48.846;9.230;2023-02-26T11:22:57;2.70;99.90
680;DHT22;322;48.846;9.230;2023-02-26T11:25:28;2.60;99.90
680;DHT22;322;48.846;9.230;2023-02-26T11:28:01;2.80;99.90
680;DHT22;322;48.846;9.230;2023-02-26T11:30:31;2.90;99.90
680;DHT22;322;48.846;9.230;2023-02-26T11:33:11;3.10;99.90
680;DHT22;322;48.846;9.230;2023-02-26T11:35:40;3.10;99.90
680;DHT22;322;48.846;9.230;2023-02-26T11:38:13;3.20;99.90
680;DHT22;322;48.846;9.230;2023-02-26T11:40:41;3.20;99.90
680;DHT22;322;48.846;9.230;2023-02-26T11:43:14;3.30;99.90
680;DHT22;322;48.846;9.230;2023-02-26T11:45:45;3.30;99.90
680;DHT22;322;48.846;9.230;2023-02-26T11:48:18;3.80;99.90
680;DHT22;322;48.846;9.230;2023-02-26T11:50:47;4.20;99.90
680;DHT22;322;48.846;9.230;2023-02-26T11:53:17;4.80;99.90
680;DHT22;322;48.846;9.230;2023-02-26T11:55:46;5.00;99.90
680;DHT22;322;48.846;9.230;2023-02-26T11:58:19;4.80;99.90
680;DHT22;322;48.846;9.230;2023-02-26T12:00:46;3.90;99.90
680;DHT22;322;48.846;9.230;2023-02-26T12:03:19;3.70;99.90
680;DHT22;322;48.846;9.230;2023-02-26T12:05:46;3.20;99.90
680;DHT22;322;48.846;9.230;2023-02-26T12:08:17;3.10;99.90
680;DHT22;322;48.846;9.230;2023-02-26T12:10:59;3.20;99.90
680;DHT22;322;48.846;9.230;2023-02-26T12:13:33;3.30;99.90
680;DHT22;322;48.846;9.230;2023-02-26T12:16:11;3.00;99.90
680;DHT22;322;48.846;9.230;2023-02-26T12:18:50;3.00;99.90
680;DHT22;322;48.846;9.230;2023-02-26T12:24:38;3.00;99.90
680;DHT22;322;48.846;9.230;2023-02-26T12:27:16;2.90;99.90
680;DHT22;322;48.846;9.230;2023-02-26T12:30:00;2.90;99.90
680;DHT22;322;48.846;9.230;2023-02-26T12:32:38;2.80;99.90
680;DHT22;322;48.846;9.230;2023-02-26T12:35:33;2.80;99.90
680;DHT22;322;48.846;9.230;2023-02-26T12:38:09;2.90;99.90
680;DHT22;322;48.846;9.230;2023-02-26T12:43:45;2.90;99.90
680;DHT22;322;48.846;9.230;2023-02-26T12:46:24;3.20;99.90
680;DHT22;322;48.846;9.230;2023-02-26T12:51:54;3.60;99.90
680;DHT22;322;48.846;9.230;2023-02-26T12:54:57;3.30;99.90
680;DHT22;322;48.846;9.230;2023-02-26T12:57:57;3.10;99.90
680;DHT22;322;48.846;9.230;2023-02-26T13:00:45;3.10;99.90
680;DHT22;322;48.846;9.230;2023-02-26T13:03:35;3.00;99.90
680;DHT22;322;48.846;9.230;2023-02-26T13:09:18;3.60;99.90
680;DHT22;322;48.846;9.230;2023-02-26T13:12:01;3.70;99.90
680;DHT22;322;48.846;9.230;2023-02-26T13:14:37;4.00;99.90
680;DHT22;322;48.846;9.230;2023-02-26T13:17:15;4.10;99.90
680;DHT22;322;48.846;9.230;2023-02-26T13:19:45;3.90;99.90
680;DHT22;322;48.846;9.230;2023-02-26T13:22:19;3.90;99.90
680;DHT22;322;48.846;9.230;2023-02-26T13:24:53;3.60;99.90
680;DHT22;322;48.846;9.230;2023-02-26T13:27:24;3.60;99.90
680;DHT22;322;48.846;9.230;2023-02-26T13:30:03;3.70;99.90
680;DHT22;322;48.846;9.230;2023-02-26T13:32:33;3.80;99.90
680;DHT22;322;48.846;9.230;2023-02-26T13:35:03;3.90;99.90
680;DHT22;322;48.846;9.230;2023-02-26T13:37:33;3.70;99.90
680;DHT22;322;48.846;9.230;2023-02-26T13:40:44;3.70;99.90
680;DHT22;322;48.846;9.230;2023-02-26T13:43:31;3.60;99.90
680;DHT22;322;48.846;9.230;2023-02-26T13:46:11;3.70;99.90
680;DHT22;322;48.846;9.230;2023-02-26T13:48:47;3.70;99.90
680;DHT22;322;48.846;9.230;2023-02-26T13:51:27;3.60;99.90
680;DHT22;322;48.846;9.230;2023-02-26T13:53:59;3.60;99.90
680;DHT22;322;48.846;9.230;2023-02-26T13:56:42;3.30;99.90
680;DHT22;322;48.846;9.230;2023-02-26T13:59:44;3.20;99.90
680;DHT22;322;48.846;9.230;2023-02-26T14:02:37;3.20;99.90
680;DHT22;322;48.846;9.230;2023-02-26T14:05:34;2.90;99.90
680;DHT22;322;48.846;9.230;2023-02-26T14:08:17;2.80;99.90
680;DHT22;322;48.846;9.230;2023-02-26T14:10:50;3.00;99.90
680;DHT22;322;48.846;9.230;2023-02-26T14:13:22;2.90;99.90
680;DHT22;322;48.846;9.230;2023-02-26T14:15:57;3.00;99.90
680;DHT22;322;48.846;9.230;2023-02-26T14:18:32;3.30;99.90
680;DHT22;322;48.846;9.230;2023-02-26T14:21:34;3.50;99.90
680;DHT22;322;48.846;9.230;2023-02-26T14:24:04;3.90;99.90
680;DHT22;322;48.846;9.230;2023-02-26T14:26:33;4.10;99.90
680;DHT22;322;48.846;9.230;2023-02-26T14:29:14;3.90;99.90
680;DHT22;322;48.846;9.230;2023-02-26T14:32:04;3.60;99.90
680;DHT22;322;48.846;9.230;2023-02-26T14:34:34;3.50;99.90
680;DHT22;322;48.846;9.230;2023-02-26T14:37:05;3.50;99.90
680;DHT22;322;48.846;9.230;2023-02-26T14:39:35;3.50;99.90
680;DHT22;322;48.846;9.230;2023-02-26T14:42:05;3.60;99.90
680;DHT22;322;48.846;9.230;2023-02-26T14:44:37;3.70;99.90
680;DHT22;322;48.846;9.230;2023-02-26T14:47:06;4.00;99.90
680;DHT22;322;48.846;9.230;2023-02-26T14:49:35;3.90;99.90
680;DHT22;322;48.846;9.230;2023-02-26T14:55:18;3.80;99.90
680;DHT22;322;48.846;9.230;2023-02-26T14:57:53;3.60;99.90
680;DHT22;322;48.846;9.230;2023-02-26T15:00:29;3.40;99.90
680;DHT22;322;48.846;9.230;2023-02-26T15:03:25;3.30;99.90
680;DHT22;322;48.846;9.230;2023-02-26T15:06:05;3.30;99.90
680;DHT22;322;48.846;9.230;2023-02-26T15:08:46;3.30;99.90
680;DHT22;322;48.846;9.230;2023-02-26T15:11:40;3.40;99.90
680;DHT22;322;48.846;9.230;2023-02-26T15:14:38;3.30;99.90
680;DHT22;322;48.846;9.230;2023-02-26T15:17:21;3.20;99.90
680;DHT22;322;48.846;9.230;2023-02-26T15:20:01;3.10;99.90
680;DHT22;322;48.846;9.230;2023-02-26T15:22:41;3.00;99.90
680;DHT22;322;48.846;9.230;2023-02-26T15:25:18;2.90;99.90
680;DHT22;322;48.846;9.230;2023-02-26T15:27:48;3.10;99.90
680;DHT22;322;48.846;9.230;2023-02-26T15:30:16;3.60;99.90
680;DHT22;322;48.846;9.230;2023-02-26T15:32:45;3.10;99.90
680;DHT22;322;48.846;9.230;2023-02-26T15:35:15;2.90;99.90
680;DHT22;322;48.846;9.230;2023-02-26T15:37:42;3.00;99.90
680;DHT22;322;48.846;9.230;2023-02-26T15:40:13;3.00;99.90
680;DHT22;322;48.846;9.230;2023-02-26T15:42:42;3.10;99.90
680;DHT22;322;48.846;9.230;2023-02-26T15:45:13;3.10;99.90
680;DHT22;322;48.846;9.230;2023-02-26T15:47:44;3.20;99.90
680;DHT22;322;48.846;9.230;2023-02-26T15:50:14;3.40;99.90
680;DHT22;322;48.846;9.230;2023-02-26T15:52:42;3.60;99.90
680;DHT22;322;48.846;9.230;2023-02-26T15:55:14;3.60;99.90
680;DHT22;322;48.846;9.230;2023-02-26T15:57:42;3.40;99.90
680;DHT22;322;48.846;9.230;2023-02-26T16:00:15;3.10;99.90
680;DHT22;322;48.846;9.230;2023-02-26T16:02:48;2.90;99.90
680;DHT22;322;48.846;9.230;2023-02-26T16:05:17;2.80;99.90
680;DHT22;322;48.846;9.230;2023-02-26T16:07:44;2.60;99.90
680;DHT22;322;48.846;9.230;2023-02-26T16:10:16;2.50;99.90
680;DHT22;322;48.846;9.230;2023-02-26T16:12:45;2.40;99.90
680;DHT22;322;48.846;9.230;2023-02-26T16:15:17;2.30;99.90
680;DHT22;322;48.846;9.230;2023-02-26T16:17:49;2.20;99.90
680;DHT22;322;48.846;9.230;2023-02-26T16:20:20;2.30;99.90
680;DHT22;322;48.846;9.230;2023-02-26T16:22:49;2.30;99.90
680;DHT22;322;48.846;9.230;2023-02-26T16:25:18;2.30;99.90
680;DHT22;322;48.846;9.230;2023-02-26T16:27:48;2.40;99.90
680;DHT22;322;48.846;9.230;2023-02-26T16:30:19;2.30;99.90
680;DHT22;322;48.846;9.230;2023-02-26T16:32:53;2.30;99.90
680;DHT22;322;48.846;9.230;2023-02-26T16:35:21;2.40;99.90
680;DHT22;322;48.846;9.230;2023-02-26T16:37:52;2.40;99.90
680;DHT22;322;48.846;9.230;2023-02-26T16:40:23;2.40;99.90
680;DHT22;322;48.846;9.230;2023-02-26T16:42:53;2.30;99.90
680;DHT22;322;48.846;9.230;2023-02-26T16:45:43;2.30;99.90
680;DHT22;322;48.846;9.230;2023-02-26T16:48:17;2.30;99.90
680;DHT22;322;48.846;9.230;2023-02-26T16:50:56;2.20;99.90
680;DHT22;322;48.846;9.230;2023-02-26T16:53:27;2.20;99.90
680;DHT22;322;48.846;9.230;2023-02-26T16:55:57;2.10;99.90
680;DHT22;322;48.846;9.230;2023-02-26T16:58:25;2.00;99.90
680;DHT22;322;48.846;9.230;2023-02-26T17:01:01;2.00;99.90
680;DHT22;322;48.846;9.230;2023-02-26T17:03:31;2.00;99.90
680;DHT22;322;48.846;9.230;2023-02-26T17:06:00;2.00;99.90
680;DHT22;322;48.846;9.230;2023-02-26T17:08:32;2.00;99.90
680;DHT22;322;48.846;9.230;2023-02-26T17:11:02;1.90;99.90
680;DHT22;322;48.846;9.230;2023-02-26T17:13:31;1.90;99.90
680;DHT22;322;48.846;9.230;2023-02-26T17:16:01;1.80;99.90
680;DHT22;322;48.846;9.230;2023-02-26T17:18:28;1.70;99.90
680;DHT22;322;48.846;9.230;2023-02-26T17:20:56;1.70;99.90
680;DHT22;322;48.846;9.230;2023-02-26T17:23:29;1.60;99.90
680;DHT22;322;48.846;9.230;2023-02-26T17:25:56;1.60;99.90
680;DHT22;322;48.846;9.230;2023-02-26T17:28:29;1.50;99.90
680;DHT22;322;48.846;9.230;2023-02-26T17:30:59;1.50;99.90
680;DHT22;322;48.846;9.230;2023-02-26T17:33:26;1.50;99.90
680;DHT22;322;48.846;9.230;2023-02-26T17:35:57;1.50;99.90